Time;durP1;ratioP1;P1;durP2;ratioP2;P2;SDS_P1;SDS_P2;PMS_P1;PMS_P2;Temp;Humidity;BMP_temperature;BMP_pressure;BME280_temperature;BME280_humidity;BME280_pressure;Samples;Min_cycle;Max_cycle;Signal;HPM_P1;HPM_P2
2023/12/29 00:01:59;;;;;;;51.78;28.70;;;153.80;2252.80;;;;;;5069859;28;20028;-59
2023/12/29 00:04:28;;;;;;;108.03;65.13;;;154.00;2252.80;;;;;;5069355;28;20096;-68
2023/12/29 00:06:55;;;;;;;91.82;57.03;;;154.10;2252.80;;;;;;5069393;28;20052;-59
2023/12/29 00:09:20;;;;;;;69.50;41.10;;;154.10;2252.80;;;;;;5069161;28;20024;-72
2023/12/29 00:11:55;;;;;;;74.50;42.83;;;154.10;2252.80;;;;;;5069234;28;20028;-59
2023/12/29 00:14:21;;;;;;;52.95;32.35;;;154.20;2252.80;;;;;;5069435;28;20020;-58
2023/12/29 00:16:46;;;;;;;83.40;46.80;;;154.20;2252.80;;;;;;5069811;28;20434;-58
2023/12/29 00:19:12;;;;;;;167.35;90.15;;;154.10;2252.80;;;;;;5082299;28;20472;-59
2023/12/29 00:21:38;;;;;;;94.40;52.10;;;154.30;2252.80;;;;;;5069445;28;20067;-60
2023/12/29 00:24:04;;;;;;;34.47;23.10;;;154.30;2252.80;;;;;;5068986;28;20487;-59
2023/12/29 00:26:30;;;;;;;30.67;20.40;;;154.10;2252.80;;;;;;5068953;28;20028;-59
2023/12/29 00:28:56;;;;;;;119.65;66.80;;;153.90;2252.80;;;;;;5069038;28;20016;-72
2023/12/29 00:31:21;;;;;;;38.10;24.73;;;153.90;2252.80;;;;;;5068948;28;20028;-58
2023/12/29 00:33:51;;;;;;;63.67;36.63;;;154.00;2252.80;;;;;;5068795;28;20033;-58
2023/12/29 00:36:18;;;;;;;40.53;25.20;;;154.00;2252.80;;;;;;5069230;28;20102;-59
2023/12/29 00:38:44;;;;;;;66.53;39.92;;;154.10;2252.80;;;;;;5068519;28;20045;-60
2023/12/29 00:41:10;;;;;;;183.80;93.28;;;154.10;2252.80;;;;;;5069319;28;20082;-58
2023/12/29 00:43:36;;;;;;;267.95;133.77;;;154.10;2252.80;;;;;;5068741;28;20107;-59
2023/12/29 00:46:05;;;;;;;106.25;59.30;;;154.00;2252.80;;;;;;5068585;28;20085;-67
2023/12/29 00:48:32;;;;;;;144.23;80.35;;;154.00;2252.80;;;;;;5068887;28;20070;-59
2023/12/29 00:50:57;;;;;;;118.07;62.97;;;154.00;2252.80;;;;;;5069046;28;20024;-59
2023/12/29 00:53:23;;;;;;;108.72;56.92;;;154.00;2252.80;;;;;;5068860;28;20024;-71
2023/12/29 00:55:49;;;;;;;112.28;58.47;;;154.10;2252.80;;;;;;5068767;28;20029;-58
2023/12/29 00:58:15;;;;;;;71.53;40.05;;;154.10;2252.80;;;;;;5071392;28;20099;-59
2023/12/29 01:00:40;;;;;;;38.47;23.27;;;154.10;2252.80;;;;;;5071870;28;20048;-58
2023/12/29 01:03:06;;;;;;;86.93;50.80;;;154.10;2252.80;;;;;;5072855;28;20123;-58
2023/12/29 01:05:32;;;;;;;58.63;32.17;;;154.10;2252.80;;;;;;5072210;28;20031;-59
2023/12/29 01:07:58;;;;;;;119.43;69.50;;;154.10;2252.80;;;;;;5054270;28;20368;-58
2023/12/29 01:10:23;;;;;;;87.70;48.05;;;154.10;2252.80;;;;;;5072414;28;20032;-58
2023/12/29 01:12:49;;;;;;;84.03;47.50;;;154.10;2252.80;;;;;;5072353;28;20394;-58
2023/12/29 01:15:15;;;;;;;62.13;37.25;;;154.10;2252.80;;;;;;5071987;28;20431;-58
2023/12/29 01:17:41;;;;;;;45.38;27.55;;;154.10;2252.80;;;;;;5072046;28;20112;-58
2023/12/29 01:20:07;;;;;;;39.17;24.52;;;154.10;2252.80;;;;;;5072085;28;20036;-58
2023/12/29 01:22:33;;;;;;;32.33;18.55;;;154.10;2252.80;;;;;;5072106;28;20045;-58
2023/12/29 01:25:00;;;;;;;32.20;20.85;;;153.90;2252.80;;;;;;5071981;28;20142;-58
2023/12/29 01:27:26;;;;;;;29.73;20.95;;;128.90;2252.80;;;;;;5072424;28;20051;-58
2023/12/29 01:29:52;;;;;;;31.02;21.25;;;128.90;2252.80;;;;;;5071715;28;20052;-58
2023/12/29 01:32:21;;;;;;;32.63;18.80;;;128.80;2252.80;;;;;;5071902;28;20098;-62
2023/12/29 01:34:47;;;;;;;70.05;37.45;;;128.90;2252.80;;;;;;5071789;28;20402;-58
2023/12/29 01:37:13;;;;;;;47.78;28.35;;;153.70;2252.80;;;;;;5071700;28;20032;-73
2023/12/29 01:39:40;;;;;;;48.50;27.70;;;153.70;2252.80;;;;;;5071525;28;20127;-58
2023/12/29 01:42:06;;;;;;;44.60;27.92;;;153.80;2252.80;;;;;;5071714;28;20082;-60
2023/12/29 01:44:32;;;;;;;60.17;32.67;;;153.80;2252.80;;;;;;5071525;28;20035;-59
2023/12/29 01:47:02;;;;;;;43.85;24.45;;;153.70;2252.80;;;;;;5071658;28;20142;-71
2023/12/29 01:49:29;;;;;;;37.92;22.58;;;153.80;2252.80;;;;;;5071507;28;20035;-59
2023/12/29 01:51:57;;;;;;;62.60;33.13;;;153.80;2252.80;;;;;;5071614;28;20382;-58
2023/12/29 01:54:26;;;;;;;41.83;23.40;;;153.80;2252.80;;;;;;5071458;28;20025;-58
2023/12/29 01:56:56;;;;;;;30.73;18.95;;;153.80;2252.80;;;;;;5071441;28;20471;-58
2023/12/29 01:59:23;;;;;;;28.20;19.48;;;128.80;2252.80;;;;;;5071231;28;20033;-59
2023/12/29 02:01:49;;;;;;;41.13;23.63;;;128.60;2252.80;;;;;;5071924;28;20020;-59
2023/12/29 02:04:17;;;;;;;41.55;23.35;;;128.70;2252.80;;;;;;5071375;28;20020;-58
2023/12/29 02:06:42;;;;;;;39.90;21.38;;;128.80;2252.80;;;;;;5071044;28;20016;-58
2023/12/29 02:09:09;;;;;;;32.30;22.02;;;128.90;2252.80;;;;;;5071645;28;20088;-59
2023/12/29 02:11:34;;;;;;;28.33;18.77;;;128.90;2252.80;;;;;;5070423;28;20028;-58
2023/12/29 02:14:01;;;;;;;31.90;20.05;;;128.80;2252.80;;;;;;5080850;28;20032;-58
2023/12/29 02:17:04;;;;;;;38.25;21.85;;;128.70;2252.80;;;;;;5071030;28;20099;-59
2023/12/29 02:19:44;;;;;;;86.32;41.20;;;128.70;2252.80;;;;;;5071144;28;20032;-70
2023/12/29 02:22:11;;;;;;;38.55;20.77;;;128.80;2252.80;;;;;;5059223;28;20494;-59
2023/12/29 02:24:38;;;;;;;32.92;20.45;;;128.90;2252.80;;;;;;5071347;28;20021;-58
2023/12/29 02:27:19;;;;;;;27.58;19.27;;;153.70;2252.80;;;;;;5070564;28;20062;-58
2023/12/29 02:30:02;;;;;;;33.20;22.58;;;153.70;2252.80;;;;;;5070663;28;20009;-70
2023/12/29 02:32:29;;;;;;;;;;;153.70;2252.80;;;;;;5071346;28;20025;-59
2023/12/29 02:34:57;;;;;;;35.38;22.00;;;153.60;2252.80;;;;;;5076655;28;20255;-68
2023/12/29 02:37:24;;;;;;;34.53;23.67;;;128.90;2252.80;;;;;;5077881;28;20060;-59
2023/12/29 02:39:50;;;;;;;49.88;25.70;;;128.90;2252.80;;;;;;5070551;28;20075;-59
2023/12/29 02:42:16;;;;;;;94.82;41.95;;;128.90;2252.80;;;;;;5070854;28;20474;-59
2023/12/29 02:44:41;;;;;;;42.28;25.73;;;128.80;2252.80;;;;;;5070486;28;20094;-59
2023/12/29 02:47:07;;;;;;;34.92;21.90;;;128.70;2252.80;;;;;;5070567;28;20382;-58
2023/12/29 02:49:33;;;;;;;33.90;21.42;;;128.50;2252.80;;;;;;5070193;28;20021;-70
2023/12/29 02:51:59;;;;;;;32.65;23.13;;;128.00;2252.80;;;;;;5070703;28;20024;-65
2023/12/29 02:54:24;;;;;;;40.25;20.35;;;128.10;2252.80;;;;;;5070122;28;20032;-59
2023/12/29 02:56:50;;;;;;;27.33;16.73;;;128.40;2252.80;;;;;;5070780;28;20479;-58
2023/12/29 02:59:16;;;;;;;24.75;17.85;;;128.40;2252.80;;;;;;5070142;28;20441;-58
2023/12/29 03:01:42;;;;;;;84.88;42.97;;;128.40;2252.80;;;;;;5070207;28;20020;-58
2023/12/29 03:04:07;;;;;;;53.08;30.42;;;128.40;2252.80;;;;;;5070277;28;20486;-62
2023/12/29 03:06:33;;;;;;;47.90;29.80;;;128.40;2252.80;;;;;;5070388;28;20024;-70
2023/12/29 03:08:59;;;;;;;54.22;35.67;;;128.50;2252.80;;;;;;5070006;28;20071;-58
2023/12/29 03:11:25;;;;;;;40.75;26.13;;;128.60;2252.80;;;;;;5069914;28;20029;-58
2023/12/29 03:13:50;;;;;;;38.05;22.27;;;128.60;2252.80;;;;;;5070306;28;20077;-58
2023/12/29 03:16:16;;;;;;;26.55;19.30;;;128.60;2252.80;;;;;;5070190;28;20021;-58
2023/12/29 03:18:42;;;;;;;23.55;16.35;;;128.70;2252.80;;;;;;5069552;28;20039;-58
2023/12/29 03:21:08;;;;;;;25.20;16.92;;;128.60;2252.80;;;;;;5069354;28;20036;-58
2023/12/29 03:23:34;;;;;;;27.92;18.52;;;128.50;2252.80;;;;;;5069663;28;20036;-58
2023/12/29 03:26:00;;;;;;;27.77;16.17;;;128.60;2252.80;;;;;;5069860;28;20029;-58
2023/12/29 03:28:25;;;;;;;24.45;16.83;;;128.50;2252.80;;;;;;5069477;28;20078;-58
2023/12/29 03:30:51;;;;;;;25.38;14.38;;;128.40;2252.80;;;;;;5076798;28;20032;-58
2023/12/29 03:33:17;;;;;;;37.33;22.73;;;128.30;2252.80;;;;;;5069603;28;20048;-59
2023/12/29 03:35:43;;;;;;;28.58;17.30;;;128.30;2252.80;;;;;;5069334;28;20032;-73
2023/12/29 03:38:08;;;;;;;30.50;19.85;;;128.40;2252.80;;;;;;5069502;28;20036;-58
2023/12/29 03:40:34;;;;;;;27.45;20.08;;;128.30;2252.80;;;;;;5069296;28;20029;-58
2023/12/29 03:43:00;;;;;;;33.65;20.45;;;128.30;2252.80;;;;;;5070083;28;20031;-67
2023/12/29 03:45:25;;;;;;;34.78;21.73;;;128.20;2252.80;;;;;;5069725;28;20364;-59
2023/12/29 03:47:51;;;;;;;46.25;26.83;;;128.20;2252.80;;;;;;5069394;28;20477;-60
2023/12/29 03:50:17;;;;;;;36.65;19.00;;;128.30;2252.80;;;;;;5069458;28;20048;-59
2023/12/29 03:52:43;;;;;;;41.05;25.90;;;128.30;2252.80;;;;;;5069346;28;20111;-58
2023/12/29 03:55:08;;;;;;;25.40;17.27;;;128.30;2252.80;;;;;;5069311;28;20033;-58
2023/12/29 03:57:34;;;;;;;39.92;24.38;;;128.20;2252.80;;;;;;5069265;28;20029;-58
2023/12/29 04:00:00;;;;;;;52.25;31.27;;;128.20;2252.80;;;;;;5069313;28;20041;-70
2023/12/29 04:02:25;;;;;;;31.20;19.75;;;128.20;2252.80;;;;;;5069430;28;20016;-58
2023/12/29 04:04:51;;;;;;;38.45;22.52;;;128.20;2252.80;;;;;;5069187;28;20036;-59
2023/12/29 04:07:17;;;;;;;46.28;30.10;;;128.20;2252.80;;;;;;5069516;28;20037;-57
2023/12/29 04:09:43;;;;;;;69.10;39.90;;;128.20;2252.80;;;;;;5068945;28;20029;-61
2023/12/29 04:12:09;;;;;;;30.38;17.77;;;128.20;2252.80;;;;;;5069198;28;20044;-59
2023/12/29 04:14:34;;;;;;;46.60;27.55;;;128.30;2252.80;;;;;;5051311;28;20378;-58
2023/12/29 04:17:03;;;;;;;28.50;17.52;;;128.30;2252.80;;;;;;5069291;28;20368;-59
2023/12/29 04:19:29;;;;;;;20.90;12.98;;;128.30;2252.80;;;;;;5068936;28;20037;-63
2023/12/29 04:21:54;;;;;;;30.80;18.60;;;128.40;2252.80;;;;;;5069339;28;20021;-58
2023/12/29 04:24:20;;;;;;;43.90;26.60;;;128.40;2252.80;;;;;;5069322;28;20033;-65
2023/12/29 04:26:46;;;;;;;25.73;16.15;;;128.50;2252.80;;;;;;5068885;28;20091;-58
2023/12/29 04:29:12;;;;;;;31.80;18.65;;;128.50;2252.80;;;;;;5069128;28;20028;-68
2023/12/29 04:31:37;;;;;;;27.85;14.52;;;128.50;2252.80;;;;;;5070915;28;20032;-58
2023/12/29 04:34:03;;;;;;;20.40;13.20;;;128.40;2252.80;;;;;;5072829;28;20025;-59
2023/12/29 04:36:29;;;;;;;20.88;13.80;;;128.40;2252.80;;;;;;5073070;28;20038;-61
2023/12/29 04:38:54;;;;;;;29.88;17.88;;;128.30;2252.80;;;;;;5072618;28;20059;-71
2023/12/29 04:41:20;;;;;;;28.95;17.13;;;128.20;2252.80;;;;;;5072918;28;20089;-58
2023/12/29 04:43:46;;;;;;;21.48;12.70;;;128.30;2252.80;;;;;;5072839;28;20064;-58
2023/12/29 04:46:11;;;;;;;28.13;17.65;;;128.20;2252.80;;;;;;5072922;28;20063;-59
2023/12/29 04:48:37;;;;;;;27.73;16.95;;;128.10;2252.80;;;;;;5072611;28;20035;-58
2023/12/29 04:51:03;;;;;;;24.65;15.32;;;103.30;2227.20;;;;;;5072908;28;20028;-58
2023/12/29 04:53:29;;;;;;;28.63;17.52;;;103.20;2227.20;;;;;;5055292;28;20368;-63
2023/12/29 04:55:55;;;;;;;30.40;14.55;;;103.20;2227.20;;;;;;5072432;28;20031;-58
2023/12/29 04:58:20;;;;;;;23.70;15.07;;;103.20;2227.20;;;;;;5072637;28;20055;-58
2023/12/29 05:00:46;;;;;;;26.42;17.70;;;103.20;2227.20;;;;;;5072415;28;20032;-58
2023/12/29 05:03:12;;;;;;;33.10;19.20;;;103.20;2227.20;;;;;;5072430;28;20031;-58
2023/12/29 05:05:38;;;;;;;27.00;15.70;;;103.10;2227.20;;;;;;5072490;28;20059;-58
2023/12/29 05:08:04;;;;;;;19.92;14.50;;;103.10;2227.20;;;;;;5072395;28;20074;-58
2023/12/29 05:10:30;;;;;;;24.70;13.80;;;103.20;2227.20;;;;;;5072472;28;20493;-70
2023/12/29 05:12:55;;;;;;;28.00;15.68;;;103.30;2227.20;;;;;;5072334;28;20107;-58
2023/12/29 05:15:21;;;;;;;24.20;14.10;;;103.30;2227.20;;;;;;5072344;28;20521;-59
2023/12/29 05:17:47;;;;;;;24.77;16.27;;;103.30;2227.20;;;;;;5072321;28;20078;-58
2023/12/29 05:20:13;;;;;;;26.27;16.27;;;128.00;2252.80;;;;;;5072248;28;20083;-58
2023/12/29 05:22:38;;;;;;;27.65;20.02;;;128.00;2252.80;;;;;;5072270;28;20020;-57
2023/12/29 05:25:05;;;;;;;25.02;16.80;;;103.30;2227.20;;;;;;5071825;28;20074;-58
2023/12/29 05:27:31;;;;;;;20.17;12.43;;;128.00;2252.80;;;;;;5079260;28;20028;-58
2023/12/29 05:29:57;;;;;;;30.20;19.02;;;128.00;2252.80;;;;;;5072400;28;20063;-61
2023/12/29 05:32:23;;;;;;;28.05;16.10;;;103.30;2227.20;;;;;;5071978;28;20455;-58
2023/12/29 05:34:48;;;;;;;35.20;19.77;;;103.30;2227.20;;;;;;5072925;28;20032;-58
2023/12/29 05:37:14;;;;;;;33.25;21.50;;;103.30;2227.20;;;;;;5072790;28;20044;-72
2023/12/29 05:39:43;;;;;;;33.47;21.48;;;128.00;2252.80;;;;;;5072261;28;20434;-57
2023/12/29 05:42:09;;;;;;;54.30;46.42;;;128.00;2252.80;;;;;;5072138;28;20024;-58
2023/12/29 05:44:38;;;;;;;38.53;24.27;;;128.00;2252.80;;;;;;5057427;28;20025;-57
2023/12/29 05:47:04;;;;;;;27.45;18.15;;;103.30;2227.20;;;;;;5071614;28;20063;-59
2023/12/29 05:49:31;;;;;;;36.33;20.75;;;103.30;2227.20;;;;;;5071721;28;20024;-59
2023/12/29 05:51:57;;;;;;;32.20;19.58;;;128.00;2252.80;;;;;;5071732;28;20250;-58
2023/12/29 05:54:24;;;;;;;28.17;18.50;;;128.10;2252.80;;;;;;5080625;28;20223;-58
2023/12/29 05:56:50;;;;;;;34.75;19.23;;;128.10;2252.80;;;;;;5071574;28;20021;-58
2023/12/29 05:59:16;;;;;;;24.77;16.13;;;128.20;2252.80;;;;;;5057097;28;20368;-58
2023/12/29 06:01:41;;;;;;;26.63;13.50;;;128.40;2252.80;;;;;;5077490;28;20035;-59
2023/12/29 06:04:07;;;;;;;50.38;37.63;;;128.40;2252.80;;;;;;5075363;28;20071;-58
2023/12/29 06:06:33;;;;;;;27.35;16.52;;;128.40;2252.80;;;;;;5079020;28;20023;-60
2023/12/29 06:08:59;;;;;;;37.53;25.35;;;128.40;2252.80;;;;;;5074823;28;20031;-63
2023/12/29 06:11:24;;;;;;;40.17;35.40;;;128.50;2252.80;;;;;;5074752;28;20082;-62
2023/12/29 06:13:50;;;;;;;41.28;29.88;;;128.50;2252.80;;;;;;5086582;28;20082;-58
2023/12/29 06:16:23;;;;;;;48.60;31.48;;;128.50;2252.80;;;;;;5090368;28;20035;-63
2023/12/29 06:18:49;;;;;;;36.67;24.45;;;128.50;2252.80;;;;;;5089329;28;20082;-64
2023/12/29 06:21:14;;;;;;;36.78;21.30;;;128.40;2252.80;;;;;;5089960;28;20032;-65
2023/12/29 06:23:40;;;;;;;30.63;19.83;;;128.40;2252.80;;;;;;5088648;28;20020;-65
2023/12/29 06:26:17;;;;;;;24.02;16.02;;;128.40;2252.80;;;;;;5071246;28;20107;-62
2023/12/29 06:28:47;;;;;;;32.97;17.80;;;128.40;2252.80;;;;;;5082284;28;20025;-64
2023/12/29 06:31:13;;;;;;;68.40;37.53;;;128.40;2252.80;;;;;;5084175;28;20093;-63
2023/12/29 06:33:42;;;;;;;40.15;25.52;;;128.30;2252.80;;;;;;5078107;28;20020;-65
2023/12/29 06:36:09;;;;;;;34.78;23.52;;;128.20;2252.80;;;;;;5090567;28;20405;-64
2023/12/29 06:38:35;;;;;;;27.23;18.73;;;128.30;2252.80;;;;;;5089987;28;20148;-63
2023/12/29 06:41:03;;;;;;;27.70;18.92;;;128.30;2252.80;;;;;;5087538;28;20035;-62
2023/12/29 06:43:30;;;;;;;24.58;17.92;;;128.30;2252.80;;;;;;5067483;28;20085;-65
2023/12/29 06:45:56;;;;;;;27.60;18.48;;;128.40;2252.80;;;;;;5066748;28;20368;-64
2023/12/29 06:48:21;;;;;;;34.70;21.40;;;128.50;2252.80;;;;;;5065113;28;20383;-64
2023/12/29 06:50:47;;;;;;;33.65;20.23;;;128.70;2252.80;;;;;;5070502;28;20051;-65
2023/12/29 06:53:14;;;;;;;26.95;17.65;;;128.80;2252.80;;;;;;5070496;28;20550;-65
2023/12/29 06:55:40;;;;;;;31.05;20.55;;;128.80;2252.80;;;;;;5077790;28;20024;-63
2023/12/29 06:58:08;;;;;;;31.02;26.00;;;128.90;2252.80;;;;;;5062823;28;20166;-68
2023/12/29 07:00:33;;;;;;;30.05;19.77;;;128.90;2252.80;;;;;;5070173;28;20024;-61
2023/12/29 07:03:01;;;;;;;52.03;30.83;;;128.90;2252.80;;;;;;5069281;28;20372;-65
2023/12/29 07:05:27;;;;;;;195.50;99.78;;;153.60;2252.80;;;;;;5069674;28;20033;-64
2023/12/29 07:07:52;;;;;;;144.68;90.30;;;153.90;2252.80;;;;;;5069549;28;20027;-65
2023/12/29 07:10:18;;;;;;;90.82;63.53;;;154.10;2252.80;;;;;;5069770;28;20078;-65
2023/12/29 07:12:44;;;;;;;78.57;52.33;;;154.10;2252.80;;;;;;5069508;28;20028;-65
2023/12/29 07:15:10;;;;;;;81.03;52.72;;;154.20;2252.80;;;;;;5069323;28;20031;-65
2023/12/29 07:17:36;;;;;;;112.75;75.63;;;154.20;2252.80;;;;;;5056402;28;20048;-66
2023/12/29 07:20:02;;;;;;;118.40;73.93;;;154.20;2252.80;;;;;;5069345;28;20076;-64
2023/12/29 07:22:27;;;;;;;96.05;61.42;;;154.20;2252.80;;;;;;5069753;28;20059;-65
2023/12/29 07:24:53;;;;;;;48.85;30.98;;;154.20;2252.80;;;;;;5069090;28;20075;-65
2023/12/29 07:27:19;;;;;;;34.75;23.20;;;154.30;2252.80;;;;;;5056382;28;20025;-65
2023/12/29 07:29:45;;;;;;;31.75;21.17;;;154.20;2252.80;;;;;;5069327;28;20029;-65
2023/12/29 07:32:10;;;;;;;30.20;20.92;;;154.20;2252.80;;;;;;5055922;28;20033;-64
2023/12/29 07:34:36;;;;;;;32.00;21.48;;;154.20;2252.80;;;;;;5069284;28;20028;-63
2023/12/29 07:37:02;;;;;;;30.95;20.83;;;154.20;2252.80;;;;;;5068920;28;20032;-63
2023/12/29 07:39:28;;;;;;;44.35;31.67;;;154.10;2252.80;;;;;;5069184;28;20110;-64
2023/12/29 07:41:54;;;;;;;54.22;38.05;;;154.30;2252.80;;;;;;5068864;28;20020;-65
2023/12/29 07:44:20;;;;;;;62.05;44.25;;;154.30;2252.80;;;;;;5069329;28;20032;-64
2023/12/29 07:46:45;;;;;;;49.70;38.28;;;179.30;2252.80;;;;;;5068961;28;20523;-64
2023/12/29 07:49:11;;;;;;;66.20;47.90;;;179.50;2252.80;;;;;;5068723;28;20028;-64
2023/12/29 07:51:46;;;;;;;70.55;48.63;;;179.70;2252.80;;;;;;5069032;28;20021;-65
2023/12/29 07:54:12;;;;;;;82.55;61.00;;;179.80;2252.80;;;;;;5068977;28;20021;-63
2023/12/29 07:56:37;;;;;;;88.38;60.28;;;179.90;2252.80;;;;;;5068788;28;20570;-66
2023/12/29 07:59:04;;;;;;;64.38;45.72;;;179.90;2252.80;;;;;;5068678;28;20041;-65
2023/12/29 08:01:30;;;;;;;54.20;37.40;;;179.80;2252.80;;;;;;5069220;28;20016;-66
2023/12/29 08:03:56;;;;;;;59.30;38.78;;;179.60;2252.80;;;;;;5068347;28;20107;-65
2023/12/29 08:06:22;;;;;;;57.78;41.90;;;179.80;2252.80;;;;;;5068474;28;20027;-64
2023/12/29 08:08:48;;;;;;;53.83;36.70;;;180.10;2252.80;;;;;;5068535;28;20036;-64
2023/12/29 08:11:17;;;;;;;47.30;32.53;;;204.80;2252.80;;;;;;5068776;28;20425;-63
2023/12/29 08:13:44;;;;;;;43.53;29.95;;;204.90;2252.80;;;;;;5068577;28;20081;-65
2023/12/29 08:16:11;;;;;;;30.17;22.80;;;205.00;2252.80;;;;;;5068592;28;20028;-65
2023/12/29 08:18:36;;;;;;;26.92;19.23;;;205.10;2252.80;;;;;;5068842;28;20043;-64
2023/12/29 08:21:02;;;;;;;24.10;17.67;;;205.00;2252.80;;;;;;5068494;28;20099;-65
2023/12/29 08:23:28;;;;;;;23.42;18.20;;;205.20;2252.80;;;;;;5068595;28;20494;-64
2023/12/29 08:25:57;;;;;;;27.60;19.55;;;205.40;2252.80;;;;;;5068535;28;20023;-65
2023/12/29 08:28:22;;;;;;;30.20;23.48;;;230.60;2252.80;;;;;;5068455;28;20029;-65
2023/12/29 08:30:48;;;;;;;34.28;25.23;;;231.10;2252.80;;;;;;5068557;28;20241;-65
2023/12/29 08:33:14;;;;;;;30.85;22.33;;;231.20;2252.80;;;;;;5068357;28;20065;-64
2023/12/29 08:35:41;;;;;;;1344.75;783.08;;;231.10;2252.80;;;;;;5068925;28;20013;-64
2023/12/29 08:38:07;;;;;;;57.22;41.03;;;231.00;2252.80;;;;;;5068098;28;20029;-64
2023/12/29 08:40:32;;;;;;;29.00;20.42;;;230.90;2252.80;;;;;;5068398;28;20360;-63
2023/12/29 08:42:58;;;;;;;65.03;36.33;;;231.00;2252.80;;;;;;5068383;28;20025;-64
2023/12/29 08:45:24;;;;;;;30.13;20.48;;;256.20;2252.80;;;;;;5068014;28;20475;-64
2023/12/29 08:47:50;;;;;;;25.80;18.40;;;282.30;2278.40;;;;;;5070070;28;20025;-63
2023/12/29 08:50:16;;;;;;;35.30;25.83;;;332.90;2329.60;;;;;;5073160;28;20023;-64
2023/12/29 08:52:42;;;;;;;80.35;71.20;;;358.80;2329.60;;;;;;5072459;28;20112;-66
2023/12/29 08:55:09;;;;;;;51.78;42.22;;;384.10;2329.60;;;;;;5070863;28;20099;-63
2023/12/29 08:57:35;;;;;;;46.78;35.53;;;384.40;2278.40;;;;;;5071565;28;20036;-64
2023/12/29 09:00:01;;;;;;;35.67;31.83;;;409.70;2252.80;;;;;;5070022;28;20379;-64
2023/12/29 09:02:27;;;;;;;30.48;26.10;;;384.90;2227.20;;;;;;5067576;28;20020;-64
2023/12/29 09:04:52;;;;;;;40.90;32.50;;;410.00;2201.60;;;;;;5068216;28;20021;-64
2023/12/29 09:07:18;;;;;;;248.23;144.38;;;410.00;2227.20;;;;;;5068329;28;20025;-64
2023/12/29 09:09:44;;;;;;;41.90;31.58;;;435.50;2124.80;;;;;;5068245;28;20399;-66
2023/12/29 09:12:10;;;;;;;28.58;24.25;;;435.80;2099.20;;;;;;5068026;28;20467;-65
2023/12/29 09:14:35;;;;;;;76.78;48.67;;;435.80;2073.60;;;;;;5067594;28;20116;-65
2023/12/29 09:17:01;;;;;;;264.90;150.73;;;435.80;2073.60;;;;;;5068156;28;20024;-65
2023/12/29 09:19:27;;;;;;;133.60;82.45;;;436.00;2048.00;;;;;;5071231;28;20028;-65
2023/12/29 09:21:53;;;;;;;44.85;33.30;;;436.10;2073.60;;;;;;5071458;28;20021;-64
2023/12/29 09:24:19;;;;;;;21.25;16.67;;;435.90;2048.00;;;;;;5071735;28;20028;-64
2023/12/29 09:26:44;;;;;;;21.45;17.73;;;435.30;2099.20;;;;;;5071186;28;20024;-62
2023/12/29 09:29:10;;;;;;;26.35;18.98;;;409.80;2176.00;;;;;;5071196;28;20024;-65
2023/12/29 09:31:36;;;;;;;19.38;15.95;;;384.60;2201.60;;;;;;5071285;28;20025;-64
2023/12/29 09:34:02;;;;;;;26.00;19.23;;;384.10;2252.80;;;;;;5071078;28;20146;-63
2023/12/29 09:36:28;;;;;;;25.85;20.15;;;358.80;2329.60;;;;;;5071272;28;20102;-64
2023/12/29 09:38:53;;;;;;;28.65;25.17;;;358.50;2329.60;;;;;;5070782;28;20052;-63
2023/12/29 09:41:23;;;;;;;24.80;20.00;;;333.70;2329.60;;;;;;5071353;28;20025;-64
2023/12/29 09:43:49;;;;;;;23.23;18.10;;;333.40;2329.60;;;;;;5071300;28;20094;-63
2023/12/29 09:46:20;;;;;;;23.42;19.15;;;333.00;2329.60;;;;;;5071143;28;20073;-64
2023/12/29 09:48:49;;;;;;;27.73;18.75;;;308.10;2304.00;;;;;;5071058;28;20103;-64
2023/12/29 09:51:15;;;;;;;27.65;20.17;;;308.00;2304.00;;;;;;5070907;28;20471;-64
2023/12/29 09:53:41;;;;;;;25.27;18.25;;;307.80;2304.00;;;;;;5070562;28;20029;-65
2023/12/29 09:56:09;;;;;;;19.70;16.45;;;307.70;2304.00;;;;;;5071158;28;20027;-63
2023/12/29 09:58:37;;;;;;;30.15;18.20;;;307.70;2304.00;;;;;;5070768;28;20119;-64
2023/12/29 10:01:04;;;;;;;24.50;17.38;;;307.80;2304.00;;;;;;5071026;28;20103;-63
2023/12/29 10:03:31;;;;;;;24.98;22.38;;;307.80;2304.00;;;;;;5071182;28;20020;-64
2023/12/29 10:06:06;;;;;;;30.38;22.23;;;308.00;2304.00;;;;;;5071052;28;20012;-63
2023/12/29 10:08:34;;;;;;;32.83;24.58;;;308.10;2304.00;;;;;;5070303;28;20024;-64
2023/12/29 10:11:01;;;;;;;33.55;26.85;;;332.80;2329.60;;;;;;5071073;28;20033;-62
2023/12/29 10:13:29;;;;;;;32.40;25.27;;;332.90;2329.60;;;;;;5070764;28;20029;-64
2023/12/29 10:16:30;;;;;;;35.72;27.35;;;332.90;2329.60;;;;;;5070982;28;20123;-63
2023/12/29 10:19:06;;;;;;;39.15;29.83;;;333.00;2329.60;;;;;;4989156;28;20180;-63
2023/12/29 10:21:44;;;;;;;33.70;23.05;;;333.10;2329.60;;;;;;4989071;28;20169;-64
2023/12/29 10:24:22;;;;;;;30.08;22.15;;;333.20;2329.60;;;;;;4989168;28;20496;-63
2023/12/29 10:26:49;;;;;;;33.15;24.23;;;333.20;2329.60;;;;;;4989011;28;20117;-63
2023/12/29 10:29:15;;;;;;;42.58;38.17;;;333.40;2329.60;;;;;;4988443;28;20791;-63
2023/12/29 10:31:41;;;;;;;32.75;25.90;;;333.40;2329.60;;;;;;4989011;28;20756;-63
2023/12/29 10:34:36;;;;;;;27.45;22.58;;;333.40;2329.60;;;;;;4988895;28;20031;-63
2023/12/29 10:37:04;;;;;;;97.13;68.57;;;333.50;2329.60;;;;;;4969014;28;20045;-64
2023/12/29 10:39:30;;;;;;;107.00;76.00;;;333.40;2329.60;;;;;;4969407;28;20129;-63
2023/12/29 10:42:07;;;;;;;68.30;48.17;;;333.60;2329.60;;;;;;4956697;28;20107;-64
2023/12/29 10:44:34;;;;;;;64.90;49.97;;;333.60;2329.60;;;;;;4968980;28;20062;-64
2023/12/29 10:47:09;;;;;;;80.40;69.78;;;333.70;2329.60;;;;;;4969018;28;20451;-63
2023/12/29 10:49:35;;;;;;;64.07;40.85;;;358.40;2329.60;;;;;;4969026;28;20093;-64
2023/12/29 10:52:14;;;;;;;32.10;23.67;;;358.40;2329.60;;;;;;4969057;28;20026;-64
2023/12/29 10:54:44;;;;;;;69.05;56.15;;;358.50;2329.60;;;;;;4973449;28;20042;-64
2023/12/29 10:57:13;;;;;;;37.25;27.02;;;358.50;2329.60;;;;;;5047997;28;20109;-64
2023/12/29 10:59:39;;;;;;;19.92;13.95;;;358.60;2329.60;;;;;;5034809;28;20057;-63
2023/12/29 11:02:05;;;;;;;18.83;15.55;;;358.70;2329.60;;;;;;5031739;28;20360;-63
2023/12/29 11:04:31;;;;;;;17.05;10.07;;;358.80;2304.00;;;;;;5031604;28;20487;-62
2023/12/29 11:06:57;;;;;;;19.48;16.25;;;358.80;2304.00;;;;;;5032008;28;20064;-63
2023/12/29 11:09:35;;;;;;;10.77;7.85;;;358.80;2278.40;;;;;;5031535;28;20521;-63
2023/12/29 11:12:03;;;;;;;18.80;13.57;;;358.90;2252.80;;;;;;5031538;28;20168;-64
2023/12/29 11:14:30;;;;;;;10.30;8.32;;;358.90;2252.80;;;;;;5052355;28;20040;-63
2023/12/29 11:16:57;;;;;;;9.50;5.75;;;358.90;2227.20;;;;;;5053899;28;20029;-63
2023/12/29 11:19:23;;;;;;;23.77;16.73;;;358.80;2227.20;;;;;;5053206;28;20099;-64
2023/12/29 11:21:56;;;;;;;144.63;129.30;;;358.90;2227.20;;;;;;5053206;28;20021;-62
2023/12/29 11:24:22;;;;;;;11.18;7.90;;;358.80;2227.20;;;;;;5053450;28;20509;-64
2023/12/29 11:26:50;;;;;;;12.70;9.45;;;358.90;2201.60;;;;;;5053513;28;20029;-65
2023/12/29 11:29:16;;;;;;;12.77;10.93;;;358.90;2176.00;;;;;;5053527;28;20017;-64
2023/12/29 11:31:45;;;;;;;8.30;5.25;;;359.00;2201.60;;;;;;5053313;28;20032;-65
2023/12/29 11:34:35;;;;;;;10.95;7.55;;;359.00;2201.60;;;;;;5053109;28;20025;-63
2023/12/29 11:37:45;;;;;;;11.15;6.15;;;359.00;2150.40;;;;;;5041586;28;20098;-63
2023/12/29 11:40:19;;;;;;;11.13;6.55;;;359.10;2150.40;;;;;;5037597;28;20545;-64
2023/12/29 11:42:49;;;;;;;15.80;10.55;;;359.10;2150.40;;;;;;5052637;28;20029;-63
2023/12/29 11:45:34;;;;;;;19.27;11.82;;;359.10;2150.40;;;;;;5052552;28;20025;-63
2023/12/29 11:48:02;;;;;;;29.70;17.55;;;359.10;2124.80;;;;;;5082261;28;20044;-63
2023/12/29 11:50:36;;;;;;;11.18;6.50;;;359.10;2124.80;;;;;;5085935;28;20115;-65
2023/12/29 11:53:03;;;;;;;9.82;4.88;;;359.10;2124.80;;;;;;5069034;28;20021;-64
2023/12/29 11:55:39;;;;;;;7.60;4.80;;;359.20;2124.80;;;;;;5069236;28;20342;-65
2023/12/29 11:58:23;;;;;;;12.52;4.38;;;359.20;2099.20;;;;;;5057076;28;20056;-64
2023/12/29 12:00:49;;;;;;;8.27;5.63;;;359.30;2124.80;;;;;;5068950;28;20040;-64